sensor_id;sensor_type;location;lat;lon;timestamp;pressure;altitude;pressure_sealevel;temperature;humidity
35553;BME280;21656;46.054;13.614;2022-10-31T08:14:45;101300.13;;;13.76;100.00
35553;BME280;21656;46.054;13.614;2022-10-31T08:17:10;101298.53;;;13.73;100.00
35553;BME280;21656;46.054;13.614;2022-10-31T08:19:36;101298.00;;;13.79;100.00
35553;BME280;21656;46.054;13.614;2022-10-31T08:22:01;101299.00;;;13.90;100.00
35553;BME280;21656;46.054;13.614;2022-10-31T08:24:27;101294.81;;;13.97;100.00
35553;BME280;21656;46.054;13.614;2022-10-31T08:26:52;101299.84;;;14.24;100.00
35553;BME280;21656;46.054;13.614;2022-10-31T08:29:18;101295.38;;;14.34;100.00
35553;BME280;21656;46.054;13.614;2022-10-31T08:31:43;101289.38;;;14.30;100.00
35553;BME280;21656;46.054;13.614;2022-10-31T08:34:08;101284.16;;;14.27;100.00
35553;BME280;21656;46.054;13.614;2022-10-31T08:36:34;101285.03;;;14.28;100.00
35553;BME280;21656;46.054;13.614;2022-10-31T08:39:00;101289.44;;;14.40;100.00
35553;BME280;21656;46.054;13.614;2022-10-31T08:41:26;101282.25;;;14.50;100.00
35553;BME280;21656;46.054;13.614;2022-10-31T08:43:51;101285.53;;;14.77;100.00
35553;BME280;21656;46.054;13.614;2022-10-31T08:46:17;101281.06;;;14.87;100.00
35553;BME280;21656;46.054;13.614;2022-10-31T08:48:42;101286.09;;;14.91;100.00
35553;BME280;21656;46.054;13.614;2022-10-31T08:51:08;101272.00;;;14.98;100.00
35553;BME280;21656;46.054;13.614;2022-10-31T08:53:34;101274.13;;;14.94;100.00
35553;BME280;21656;46.054;13.614;2022-10-31T08:55:59;101288.44;;;14.85;100.00
35553;BME280;21656;46.054;13.614;2022-10-31T08:58:25;101283.03;;;14.85;100.00
35553;BME280;21656;46.054;13.614;2022-10-31T09:00:52;101277.53;;;14.96;100.00
35553;BME280;21656;46.054;13.614;2022-10-31T09:03:23;101272.53;;;15.12;100.00
35553;BME280;21656;46.054;13.614;2022-10-31T09:05:49;101278.94;;;15.11;100.00
35553;BME280;21656;46.054;13.614;2022-10-31T09:08:15;101275.25;;;15.12;100.00
35553;BME280;21656;46.054;13.614;2022-10-31T09:10:41;101263.72;;;15.20;100.00
35553;BME280;21656;46.054;13.614;2022-10-31T09:13:10;101264.19;;;15.25;100.00
35553;BME280;21656;46.054;13.614;2022-10-31T09:15:38;101278.28;;;15.40;100.00
35553;BME280;21656;46.054;13.614;2022-10-31T09:18:06;101270.03;;;15.72;100.00
35553;BME280;21656;46.054;13.614;2022-10-31T09:20:34;101268.78;;;15.86;100.00
35553;BME280;21656;46.054;13.614;2022-10-31T09:23:01;101272.00;;;16.01;100.00
35553;BME280;21656;46.054;13.614;2022-10-31T09:25:28;101265.41;;;16.03;100.00
35553;BME280;21656;46.054;13.614;2022-10-31T09:27:58;101265.59;;;16.12;100.00
35553;BME280;21656;46.054;13.614;2022-10-31T09:30:25;101267.63;;;16.29;100.00
35553;BME280;21656;46.054;13.614;2022-10-31T09:33:05;101271.97;;;16.51;100.00
35553;BME280;21656;46.054;13.614;2022-10-31T09:35:31;101263.22;;;16.67;100.00
35553;BME280;21656;46.054;13.614;2022-10-31T09:37:58;101267.38;;;16.71;100.00
35553;BME280;21656;46.054;13.614;2022-10-31T09:40:31;101260.22;;;16.70;100.00
35553;BME280;21656;46.054;13.614;2022-10-31T09:43:09;101267.09;;;16.74;100.00
35553;BME280;21656;46.054;13.614;2022-10-31T09:45:47;101263.53;;;16.83;100.00
35553;BME280;21656;46.054;13.614;2022-10-31T09:48:37;101255.38;;;16.93;100.00
35553;BME280;21656;46.054;13.614;2022-10-31T09:51:38;101257.22;;;17.02;100.00
35553;BME280;21656;46.054;13.614;2022-10-31T09:54:26;101257.06;;;17.14;98.58
35553;BME280;21656;46.054;13.614;2022-10-31T09:56:56;101253.91;;;17.18;99.10
35553;BME280;21656;46.054;13.614;2022-10-31T09:59:29;101253.16;;;17.26;97.75
35553;BME280;21656;46.054;13.614;2022-10-31T10:07:19;101238.28;;;17.67;93.59
35553;BME280;21656;46.054;13.614;2022-10-31T10:09:47;101243.66;;;17.87;89.03
35553;BME280;21656;46.054;13.614;2022-10-31T10:15:33;101239.03;;;18.15;90.19
35553;BME280;21656;46.054;13.614;2022-10-31T10:20:31;101240.47;;;18.37;86.50
35553;BME280;21656;46.054;13.614;2022-10-31T10:25:38;101238.13;;;18.60;87.64
35553;BME280;21656;46.054;13.614;2022-10-31T10:28:35;101234.31;;;18.71;87.52
35553;BME280;21656;46.054;13.614;2022-10-31T10:31:07;101234.88;;;18.74;86.16
35553;BME280;21656;46.054;13.614;2022-10-31T10:33:41;101229.88;;;18.70;84.92
35553;BME280;21656;46.054;13.614;2022-10-31T10:36:13;101225.53;;;18.77;86.67
35553;BME280;21656;46.054;13.614;2022-10-31T10:41:17;101218.88;;;18.97;88.06
35553;BME280;21656;46.054;13.614;2022-10-31T10:43:43;101215.72;;;19.10;87.77
35553;BME280;21656;46.054;13.614;2022-10-31T10:49:50;101207.16;;;19.31;82.79
35553;BME280;21656;46.054;13.614;2022-10-31T11:00:19;101206.13;;;19.66;71.60
35553;BME280;21656;46.054;13.614;2022-10-31T11:02:44;101210.81;;;19.74;73.63
35553;BME280;21656;46.054;13.614;2022-10-31T11:05:20;101198.59;;;19.95;72.86
35553;BME280;21656;46.054;13.614;2022-10-31T11:07:47;101196.56;;;20.05;72.38
35553;BME280;21656;46.054;13.614;2022-10-31T11:10:14;101190.47;;;20.19;72.44
35553;BME280;21656;46.054;13.614;2022-10-31T11:12:42;101182.59;;;20.24;70.43
35553;BME280;21656;46.054;13.614;2022-10-31T11:15:26;101179.38;;;20.37;68.26
35553;BME280;21656;46.054;13.614;2022-10-31T11:17:54;101183.66;;;20.48;65.62
35553;BME280;21656;46.054;13.614;2022-10-31T11:20:26;101176.69;;;20.62;65.90
35553;BME280;21656;46.054;13.614;2022-10-31T11:23:05;101179.75;;;20.75;63.75
35553;BME280;21656;46.054;13.614;2022-10-31T11:25:31;101178.72;;;20.84;63.97
35553;BME280;21656;46.054;13.614;2022-10-31T11:28:09;101174.78;;;20.95;64.48
35553;BME280;21656;46.054;13.614;2022-10-31T11:30:43;101168.09;;;21.06;64.33
35553;BME280;21656;46.054;13.614;2022-10-31T11:33:44;101169.59;;;21.16;62.93
35553;BME280;21656;46.054;13.614;2022-10-31T11:36:17;101162.06;;;21.18;62.94
35553;BME280;21656;46.054;13.614;2022-10-31T11:38:43;101161.88;;;21.28;62.93
35553;BME280;21656;46.054;13.614;2022-10-31T11:41:16;101162.69;;;21.37;61.84
35553;BME280;21656;46.054;13.614;2022-10-31T11:44:11;101165.75;;;21.50;60.78
35553;BME280;21656;46.054;13.614;2022-10-31T11:46:58;101163.47;;;21.62;59.27
35553;BME280;21656;46.054;13.614;2022-10-31T11:49:34;101156.41;;;21.76;62.04
35553;BME280;21656;46.054;13.614;2022-10-31T11:52:07;101154.09;;;21.88;60.11
35553;BME280;21656;46.054;13.614;2022-10-31T11:54:44;101154.06;;;21.96;60.08
35553;BME280;21656;46.054;13.614;2022-10-31T11:59:54;101142.13;;;22.12;61.70
35553;BME280;21656;46.054;13.614;2022-10-31T12:02:21;101142.41;;;22.25;63.53
35553;BME280;21656;46.054;13.614;2022-10-31T12:04:54;101138.56;;;22.34;61.12
35553;BME280;21656;46.054;13.614;2022-10-31T12:07:22;101136.66;;;22.58;62.46
35553;BME280;21656;46.054;13.614;2022-10-31T12:09:48;101133.69;;;22.82;62.58
35553;BME280;21656;46.054;13.614;2022-10-31T12:12:31;101125.78;;;23.02;63.81
35553;BME280;21656;46.054;13.614;2022-10-31T12:17:47;101119.25;;;23.18;61.40
35553;BME280;21656;46.054;13.614;2022-10-31T12:29:06;101113.78;;;23.84;62.67
35553;BME280;21656;46.054;13.614;2022-10-31T12:45:59;101096.69;;;23.89;67.06
35553;BME280;21656;46.054;13.614;2022-10-31T12:56:39;101091.59;;;23.20;73.87
35553;BME280;21656;46.054;13.614;2022-10-31T13:01:44;101084.66;;;22.94;77.56
35553;BME280;21656;46.054;13.614;2022-10-31T13:07:11;101078.97;;;22.96;77.18
35553;BME280;21656;46.054;13.614;2022-10-31T13:09:47;101081.81;;;22.87;78.40
35553;BME280;21656;46.054;13.614;2022-10-31T13:12:19;101089.72;;;22.67;77.50
35553;BME280;21656;46.054;13.614;2022-10-31T13:14:52;101079.72;;;22.75;79.87
35553;BME280;21656;46.054;13.614;2022-10-31T13:17:42;101076.88;;;22.83;82.50
35553;BME280;21656;46.054;13.614;2022-10-31T13:20:29;101082.91;;;22.63;80.83
35553;BME280;21656;46.054;13.614;2022-10-31T13:23:11;101075.84;;;22.69;83.01
35553;BME280;21656;46.054;13.614;2022-10-31T13:25:45;101073.72;;;22.56;83.09
35553;BME280;21656;46.054;13.614;2022-10-31T13:28:33;101075.94;;;22.38;83.95
35553;BME280;21656;46.054;13.614;2022-10-31T13:31:00;101069.44;;;22.39;84.84
35553;BME280;21656;46.054;13.614;2022-10-31T13:33:34;101074.88;;;22.24;85.42
35553;BME280;21656;46.054;13.614;2022-10-31T13:36:08;101077.16;;;22.12;85.26
35553;BME280;21656;46.054;13.614;2022-10-31T13:38:52;101070.34;;;22.08;85.90
35553;BME280;21656;46.054;13.614;2022-10-31T13:46:42;101074.81;;;21.55;87.43
35553;BME280;21656;46.054;13.614;2022-10-31T13:54:40;101072.13;;;20.99;91.46
35553;BME280;21656;46.054;13.614;2022-10-31T13:57:22;101075.91;;;20.90;91.65
35553;BME280;21656;46.054;13.614;2022-10-31T13:59:56;101068.94;;;20.79;92.15
35553;BME280;21656;46.054;13.614;2022-10-31T14:02:34;101074.22;;;20.72;95.77
35553;BME280;21656;46.054;13.614;2022-10-31T14:05:04;101063.63;;;20.53;94.92
35553;BME280;21656;46.054;13.614;2022-10-31T14:07:31;101070.31;;;20.34;96.27
35553;BME280;21656;46.054;13.614;2022-10-31T14:10:04;101061.59;;;20.22;99.98
35553;BME280;21656;46.054;13.614;2022-10-31T14:12:37;101066.72;;;20.09;100.00
35553;BME280;21656;46.054;13.614;2022-10-31T14:15:25;101067.75;;;20.00;100.00
35553;BME280;21656;46.054;13.614;2022-10-31T14:22:54;101063.47;;;19.89;100.00
35553;BME280;21656;46.054;13.614;2022-10-31T14:27:54;101068.38;;;19.69;100.00
35553;BME280;21656;46.054;13.614;2022-10-31T14:30:23;101068.19;;;19.62;100.00
35553;BME280;21656;46.054;13.614;2022-10-31T14:32:52;101071.75;;;19.63;100.00
35553;BME280;21656;46.054;13.614;2022-10-31T14:35:20;101068.97;;;19.46;100.00
35553;BME280;21656;46.054;13.614;2022-10-31T14:40:46;101073.19;;;19.24;100.00
35553;BME280;21656;46.054;13.614;2022-10-31T14:49:16;101071.84;;;18.94;100.00
35553;BME280;21656;46.054;13.614;2022-10-31T14:51:47;101075.91;;;18.90;100.00
35553;BME280;21656;46.054;13.614;2022-10-31T14:54:25;101083.34;;;18.80;100.00
35553;BME280;21656;46.054;13.614;2022-10-31T14:56:57;101081.88;;;18.68;100.00
35553;BME280;21656;46.054;13.614;2022-10-31T14:59:29;101081.28;;;18.56;100.00
35553;BME280;21656;46.054;13.614;2022-10-31T15:02:13;101087.69;;;18.47;100.00
35553;BME280;21656;46.054;13.614;2022-10-31T15:04:40;101085.75;;;18.39;100.00
35553;BME280;21656;46.054;13.614;2022-10-31T15:07:14;101089.09;;;18.33;100.00
35553;BME280;21656;46.054;13.614;2022-10-31T15:09:41;101087.16;;;18.25;100.00
35553;BME280;21656;46.054;13.614;2022-10-31T15:14:49;101094.38;;;18.08;100.00
35553;BME280;21656;46.054;13.614;2022-10-31T15:17:15;101086.72;;;18.12;100.00
35553;BME280;21656;46.054;13.614;2022-10-31T15:19:42;101099.50;;;17.93;100.00
35553;BME280;21656;46.054;13.614;2022-10-31T15:22:16;101090.97;;;17.79;100.00
35553;BME280;21656;46.054;13.614;2022-10-31T15:24:44;101095.28;;;17.81;100.00
35553;BME280;21656;46.054;13.614;2022-10-31T15:27:15;101097.91;;;17.73;100.00
35553;BME280;21656;46.054;13.614;2022-10-31T15:29:55;101092.56;;;17.53;100.00
35553;BME280;21656;46.054;13.614;2022-10-31T15:32:26;101095.75;;;17.49;100.00
35553;BME280;21656;46.054;13.614;2022-10-31T15:34:53;101097.22;;;17.43;100.00
35553;BME280;21656;46.054;13.614;2022-10-31T15:37:21;101098.78;;;17.46;100.00
35553;BME280;21656;46.054;13.614;2022-10-31T15:39:47;101099.94;;;17.43;100.00
35553;BME280;21656;46.054;13.614;2022-10-31T15:42:22;101098.06;;;17.44;100.00
35553;BME280;21656;46.054;13.614;2022-10-31T15:44:54;101093.16;;;17.29;100.00
35553;BME280;21656;46.054;13.614;2022-10-31T15:47:22;101104.31;;;17.26;100.00
35553;BME280;21656;46.054;13.614;2022-10-31T15:49:54;101099.63;;;17.19;100.00
35553;BME280;21656;46.054;13.614;2022-10-31T15:52:31;101101.81;;;17.15;100.00
35553;BME280;21656;46.054;13.614;2022-10-31T15:55:24;101100.13;;;17.04;100.00
35553;BME280;21656;46.054;13.614;2022-10-31T15:57:56;101100.91;;;16.87;100.00
35553;BME280;21656;46.054;13.614;2022-10-31T16:05:47;101106.97;;;16.52;100.00
35553;BME280;21656;46.054;13.614;2022-10-31T16:08:32;101105.69;;;16.46;100.00
35553;BME280;21656;46.054;13.614;2022-10-31T16:13:37;101109.28;;;16.46;100.00
35553;BME280;21656;46.054;13.614;2022-10-31T16:16:11;101110.25;;;16.45;100.00
35553;BME280;21656;46.054;13.614;2022-10-31T16:18:39;101117.72;;;16.24;100.00
35553;BME280;21656;46.054;13.614;2022-10-31T16:21:06;101116.72;;;16.15;100.00
35553;BME280;21656;46.054;13.614;2022-10-31T16:23:32;101119.00;;;16.10;100.00
35553;BME280;21656;46.054;13.614;2022-10-31T16:25:58;101114.16;;;16.04;100.00
35553;BME280;21656;46.054;13.614;2022-10-31T16:28:26;101122.88;;;15.98;100.00
35553;BME280;21656;46.054;13.614;2022-10-31T16:30:56;101127.44;;;15.97;100.00
35553;BME280;21656;46.054;13.614;2022-10-31T16:35:49;101138.88;;;16.01;100.00
35553;BME280;21656;46.054;13.614;2022-10-31T16:38:15;101132.00;;;15.87;100.00
35553;BME280;21656;46.054;13.614;2022-10-31T16:40:41;101134.00;;;15.85;100.00
35553;BME280;21656;46.054;13.614;2022-10-31T16:43:14;101130.13;;;15.78;100.00
35553;BME280;21656;46.054;13.614;2022-10-31T16:45:58;101144.88;;;15.85;100.00
35553;BME280;21656;46.054;13.614;2022-10-31T16:48:23;101141.97;;;15.77;100.00
35553;BME280;21656;46.054;13.614;2022-10-31T16:50:49;101145.09;;;15.63;100.00
35553;BME280;21656;46.054;13.614;2022-10-31T16:53:15;101144.00;;;15.75;100.00
35553;BME280;21656;46.054;13.614;2022-10-31T16:55:47;101147.06;;;15.60;100.00
35553;BME280;21656;46.054;13.614;2022-10-31T16:58:20;101147.75;;;15.53;100.00
35553;BME280;21656;46.054;13.614;2022-10-31T17:00:47;101150.88;;;15.48;100.00
35553;BME280;21656;46.054;13.614;2022-10-31T17:03:12;101157.41;;;15.36;100.00
35553;BME280;21656;46.054;13.614;2022-10-31T17:05:38;101158.94;;;15.29;100.00
35553;BME280;21656;46.054;13.614;2022-10-31T17:08:04;101156.69;;;15.34;100.00
35553;BME280;21656;46.054;13.614;2022-10-31T17:10:29;101155.78;;;15.24;100.00
35553;BME280;21656;46.054;13.614;2022-10-31T17:12:55;101166.09;;;15.30;100.00
35553;BME280;21656;46.054;13.614;2022-10-31T17:15:26;101163.16;;;15.43;100.00
35553;BME280;21656;46.054;13.614;2022-10-31T17:17:52;101169.47;;;15.53;100.00
35553;BME280;21656;46.054;13.614;2022-10-31T17:20:28;101172.72;;;15.47;100.00
35553;BME280;21656;46.054;13.614;2022-10-31T17:22:54;101173.59;;;15.47;100.00
35553;BME280;21656;46.054;13.614;2022-10-31T17:25:22;101172.97;;;15.34;100.00
35553;BME280;21656;46.054;13.614;2022-10-31T17:27:49;101174.66;;;15.25;100.00
35553;BME280;21656;46.054;13.614;2022-10-31T17:30:15;101172.16;;;15.12;100.00
35553;BME280;21656;46.054;13.614;2022-10-31T17:32:43;101172.84;;;15.05;100.00
35553;BME280;21656;46.054;13.614;2022-10-31T17:35:10;101168.09;;;14.97;100.00
35553;BME280;21656;46.054;13.614;2022-10-31T17:37:37;101179.19;;;14.94;100.00
35553;BME280;21656;46.054;13.614;2022-10-31T17:40:03;101176.97;;;15.09;100.00
35553;BME280;21656;46.054;13.614;2022-10-31T17:42:28;101175.59;;;15.14;100.00
35553;BME280;21656;46.054;13.614;2022-10-31T17:44:53;101169.84;;;15.08;100.00
35553;BME280;21656;46.054;13.614;2022-10-31T17:47:19;101177.25;;;15.06;100.00
35553;BME280;21656;46.054;13.614;2022-10-31T17:49:44;101179.84;;;15.07;100.00
35553;BME280;21656;46.054;13.614;2022-10-31T17:52:10;101183.97;;;15.02;100.00
35553;BME280;21656;46.054;13.614;2022-10-31T17:54:35;101177.25;;;15.06;100.00
35553;BME280;21656;46.054;13.614;2022-10-31T17:57:00;101189.91;;;14.95;100.00
35553;BME280;21656;46.054;13.614;2022-10-31T17:59:26;101182.63;;;14.96;100.00
35553;BME280;21656;46.054;13.614;2022-10-31T18:01:54;101189.38;;;14.81;100.00
35553;BME280;21656;46.054;13.614;2022-10-31T18:04:20;101199.44;;;14.69;100.00
35553;BME280;21656;46.054;13.614;2022-10-31T18:06:45;101195.91;;;14.57;100.00
35553;BME280;21656;46.054;13.614;2022-10-31T18:09:14;101190.97;;;14.62;100.00
35553;BME280;21656;46.054;13.614;2022-10-31T18:11:40;101192.34;;;14.57;100.00
35553;BME280;21656;46.054;13.614;2022-10-31T18:14:05;101198.91;;;14.43;100.00
35553;BME280;21656;46.054;13.614;2022-10-31T18:16:30;101199.44;;;14.37;100.00
35553;BME280;21656;46.054;13.614;2022-10-31T18:18:57;101188.47;;;14.38;100.00
35553;BME280;21656;46.054;13.614;2022-10-31T18:21:30;101196.25;;;14.31;100.00
35553;BME280;21656;46.054;13.614;2022-10-31T18:23:57;101194.66;;;14.29;100.00
35553;BME280;21656;46.054;13.614;2022-10-31T18:26:25;101198.59;;;14.25;100.00
35553;BME280;21656;46.054;13.614;2022-10-31T18:28:50;101201.03;;;14.28;100.00
35553;BME280;21656;46.054;13.614;2022-10-31T18:31:16;101199.97;;;14.30;100.00
35553;BME280;21656;46.054;13.614;2022-10-31T18:33:42;101198.97;;;14.31;100.00
35553;BME280;21656;46.054;13.614;2022-10-31T18:36:08;101205.03;;;14.24;100.00
35553;BME280;21656;46.054;13.614;2022-10-31T18:38:43;101211.88;;;14.28;100.00
35553;BME280;21656;46.054;13.614;2022-10-31T18:41:12;101208.00;;;14.21;100.00
35553;BME280;21656;46.054;13.614;2022-10-31T18:43:38;101215.88;;;14.13;100.00
35553;BME280;21656;46.054;13.614;2022-10-31T18:46:06;101210.88;;;14.08;100.00
35553;BME280;21656;46.054;13.614;2022-10-31T18:48:33;101213.09;;;14.35;100.00
35553;BME280;21656;46.054;13.614;2022-10-31T18:51:03;101221.75;;;14.29;100.00
35553;BME280;21656;46.054;13.614;2022-10-31T18:53:29;101215.00;;;14.23;100.00
35553;BME280;21656;46.054;13.614;2022-10-31T18:55:54;101218.19;;;14.17;100.00
35553;BME280;21656;46.054;13.614;2022-10-31T18:58:20;101205.88;;;14.24;100.00
35553;BME280;21656;46.054;13.614;2022-10-31T19:00:45;101209.81;;;14.20;100.00
35553;BME280;21656;46.054;13.614;2022-10-31T19:03:11;101206.25;;;14.20;100.00
35553;BME280;21656;46.054;13.614;2022-10-31T19:05:37;101205.47;;;13.97;100.00
35553;BME280;21656;46.054;13.614;2022-10-31T19:08:03;101209.91;;;13.98;100.00
35553;BME280;21656;46.054;13.614;2022-10-31T19:10:29;101205.47;;;13.97;100.00
35553;BME280;21656;46.054;13.614;2022-10-31T19:12:54;101211.97;;;14.05;100.00
35553;BME280;21656;46.054;13.614;2022-10-31T19:15:19;101209.66;;;14.01;100.00
35553;BME280;21656;46.054;13.614;2022-10-31T19:17:45;101206.31;;;13.97;100.00
35553;BME280;21656;46.054;13.614;2022-10-31T19:20:11;101207.78;;;14.01;100.00
35553;BME280;21656;46.054;13.614;2022-10-31T19:22:38;101207.25;;;14.07;100.00
35553;BME280;21656;46.054;13.614;2022-10-31T19:25:03;101207.41;;;14.06;100.00
35553;BME280;21656;46.054;13.614;2022-10-31T19:27:29;101207.41;;;13.95;100.00
35553;BME280;21656;46.054;13.614;2022-10-31T19:29:54;101203.28;;;13.79;100.00
35553;BME280;21656;46.054;13.614;2022-10-31T19:32:20;101214.13;;;13.68;100.00
35553;BME280;21656;46.054;13.614;2022-10-31T19:34:45;101214.13;;;13.68;100.00
35553;BME280;21656;46.054;13.614;2022-10-31T19:37:10;101207.84;;;13.68;100.00
35553;BME280;21656;46.054;13.614;2022-10-31T19:39:36;101206.13;;;13.78;100.00
35553;BME280;21656;46.054;13.614;2022-10-31T19:42:01;101213.63;;;13.85;100.00
35553;BME280;21656;46.054;13.614;2022-10-31T19:44:27;101219.25;;;13.94;100.00
35553;BME280;21656;46.054;13.614;2022-10-31T19:46:54;101214.59;;;13.84;100.00
35553;BME280;21656;46.054;13.614;2022-10-31T19:49:20;101204.75;;;13.72;100.00
35553;BME280;21656;46.054;13.614;2022-10-31T19:51:45;101210.56;;;13.68;100.00
35553;BME280;21656;46.054;13.614;2022-10-31T19:54:11;101216.81;;;13.57;100.00
35553;BME280;21656;46.054;13.614;2022-10-31T19:56:36;101226.94;;;13.55;100.00
35553;BME280;21656;46.054;13.614;2022-10-31T19:59:02;101230.13;;;13.60;100.00
35553;BME280;21656;46.054;13.614;2022-10-31T20:01:28;101223.97;;;13.80;100.00
35553;BME280;21656;46.054;13.614;2022-10-31T20:03:54;101223.97;;;13.80;100.00
35553;BME280;21656;46.054;13.614;2022-10-31T20:06:47;101218.53;;;13.69;100.00
35553;BME280;21656;46.054;13.614;2022-10-31T20:09:13;101228.25;;;13.49;100.00
35553;BME280;21656;46.054;13.614;2022-10-31T20:11:39;101221.03;;;13.27;100.00
35553;BME280;21656;46.054;13.614;2022-10-31T20:14:06;101237.97;;;13.29;100.00
35553;BME280;21656;46.054;13.614;2022-10-31T20:16:32;101238.84;;;13.30;100.00
35553;BME280;21656;46.054;13.614;2022-10-31T20:18:58;101238.84;;;13.30;100.00
35553;BME280;21656;46.054;13.614;2022-10-31T20:21:26;101238.19;;;13.26;100.00
35553;BME280;21656;46.054;13.614;2022-10-31T20:23:56;101238.69;;;13.20;100.00
35553;BME280;21656;46.054;13.614;2022-10-31T20:26:23;101243.44;;;13.16;100.00
35553;BME280;21656;46.054;13.614;2022-10-31T20:28:48;101248.22;;;13.37;100.00
35553;BME280;21656;46.054;13.614;2022-10-31T20:31:17;101238.31;;;13.25;100.00
35553;BME280;21656;46.054;13.614;2022-10-31T20:33:43;101240.56;;;13.31;100.00
35553;BME280;21656;46.054;13.614;2022-10-31T20:36:08;101243.25;;;13.31;100.00
35553;BME280;21656;46.054;13.614;2022-10-31T20:38:38;101247.75;;;13.19;100.00
35553;BME280;21656;46.054;13.614;2022-10-31T20:41:05;101246.03;;;13.07;100.00
35553;BME280;21656;46.054;13.614;2022-10-31T20:43:31;101250.53;;;12.95;100.00
35553;BME280;21656;46.054;13.614;2022-10-31T20:46:01;101260.34;;;12.85;100.00
35553;BME280;21656;46.054;13.614;2022-10-31T20:48:27;101264.25;;;12.80;100.00
35553;BME280;21656;46.054;13.614;2022-10-31T20:51:01;101255.41;;;12.78;100.00
35553;BME280;21656;46.054;13.614;2022-10-31T20:53:28;101258.19;;;12.66;100.00
35553;BME280;21656;46.054;13.614;2022-10-31T20:56:23;101256.56;;;12.63;100.00
35553;BME280;21656;46.054;13.614;2022-10-31T20:58:50;101253.75;;;12.65;100.00
35553;BME280;21656;46.054;13.614;2022-10-31T21:01:21;101252.06;;;12.64;100.00
35553;BME280;21656;46.054;13.614;2022-10-31T21:03:47;101253.16;;;12.61;100.00
35553;BME280;21656;46.054;13.614;2022-10-31T21:06:14;101253.50;;;12.56;100.00
35553;BME280;21656;46.054;13.614;2022-10-31T21:08:41;101250.19;;;12.64;100.00
35553;BME280;21656;46.054;13.614;2022-10-31T21:11:09;101245.16;;;12.60;100.00
35553;BME280;21656;46.054;13.614;2022-10-31T21:13:36;101253.19;;;12.72;100.00
35553;BME280;21656;46.054;13.614;2022-10-31T21:16:05;101254.00;;;12.97;100.00
35553;BME280;21656;46.054;13.614;2022-10-31T21:18:33;101259.41;;;12.97;100.00
35553;BME280;21656;46.054;13.614;2022-10-31T21:20:58;101266.84;;;12.82;100.00
35553;BME280;21656;46.054;13.614;2022-10-31T21:23:24;101267.69;;;12.47;100.00
35553;BME280;21656;46.054;13.614;2022-10-31T21:25:49;101262.75;;;12.41;100.00
35553;BME280;21656;46.054;13.614;2022-10-31T21:28:15;101265.31;;;12.43;100.00
35553;BME280;21656;46.054;13.614;2022-10-31T21:30:46;101267.00;;;12.56;100.00
35553;BME280;21656;46.054;13.614;2022-10-31T21:33:12;101266.00;;;12.57;100.00
35553;BME280;21656;46.054;13.614;2022-10-31T21:35:38;101257.72;;;12.72;100.00
35553;BME280;21656;46.054;13.614;2022-10-31T21:38:03;101263.22;;;12.70;100.00
35553;BME280;21656;46.054;13.614;2022-10-31T21:40:29;101262.84;;;12.64;100.00
35553;BME280;21656;46.054;13.614;2022-10-31T21:42:55;101259.84;;;12.55;100.00
35553;BME280;21656;46.054;13.614;2022-10-31T21:45:20;101265.03;;;12.58;100.00
35553;BME280;21656;46.054;13.614;2022-10-31T21:47:47;101264.66;;;12.63;100.00
